sensor_id;sensor_type;location;lat;lon;timestamp;P1;durP1;ratioP1;P2;durP2;ratioP2
53642;SDS011;39546;45.534;12.048;2022-09-09T00:02:27;4.62;;;2.55;;
53642;SDS011;39546;45.534;12.048;2022-09-09T00:09:15;3.67;;;2.00;;
53642;SDS011;39546;45.534;12.048;2022-09-09T00:15:12;7.20;;;2.28;;
53642;SDS011;39546;45.534;12.048;2022-09-09T00:21:22;4.95;;;2.22;;
53642;SDS011;39546;45.534;12.048;2022-09-09T00:27:42;2.70;;;1.85;;
53642;SDS011;39546;45.534;12.048;2022-09-09T00:33:48;3.72;;;1.77;;
53642;SDS011;39546;45.534;12.048;2022-09-09T00:39:53;6.47;;;2.55;;
53642;SDS011;39546;45.534;12.048;2022-09-09T00:46:21;4.97;;;2.95;;
53642;SDS011;39546;45.534;12.048;2022-09-09T00:59:28;6.03;;;3.12;;
53642;SDS011;39546;45.534;12.048;2022-09-09T01:12:16;6.87;;;2.22;;
53642;SDS011;39546;45.534;12.048;2022-09-09T01:18:28;6.37;;;2.12;;
53642;SDS011;39546;45.534;12.048;2022-09-09T01:24:40;4.28;;;1.80;;
53642;SDS011;39546;45.534;12.048;2022-09-09T01:30:50;3.05;;;1.70;;
53642;SDS011;39546;45.534;12.048;2022-09-09T01:43:08;3.97;;;1.70;;
53642;SDS011;39546;45.534;12.048;2022-09-09T01:49:11;4.57;;;1.58;;
53642;SDS011;39546;45.534;12.048;2022-09-09T01:55:14;2.05;;;1.48;;
53642;SDS011;39546;45.534;12.048;2022-09-09T02:13:43;2.72;;;1.83;;
53642;SDS011;39546;45.534;12.048;2022-09-09T02:26:44;1.87;;;1.62;;
53642;SDS011;39546;45.534;12.048;2022-09-09T02:32:50;2.37;;;1.73;;
53642;SDS011;39546;45.534;12.048;2022-09-09T02:39:00;2.20;;;1.60;;
53642;SDS011;39546;45.534;12.048;2022-09-09T02:45:05;4.90;;;1.75;;
53642;SDS011;39546;45.534;12.048;2022-09-09T02:51:16;2.10;;;1.48;;
53642;SDS011;39546;45.534;12.048;2022-09-09T02:57:48;3.47;;;2.25;;
53642;SDS011;39546;45.534;12.048;2022-09-09T03:03:52;6.72;;;2.30;;
53642;SDS011;39546;45.534;12.048;2022-09-09T03:09:56;4.20;;;1.98;;
53642;SDS011;39546;45.534;12.048;2022-09-09T03:16:00;1.95;;;1.00;;
53642;SDS011;39546;45.534;12.048;2022-09-09T03:22:02;3.50;;;2.05;;
53642;SDS011;39546;45.534;12.048;2022-09-09T03:28:06;4.65;;;2.08;;
53642;SDS011;39546;45.534;12.048;2022-09-09T03:34:08;1.58;;;1.02;;
53642;SDS011;39546;45.534;12.048;2022-09-09T03:40:11;2.22;;;1.35;;
53642;SDS011;39546;45.534;12.048;2022-09-09T03:46:13;4.37;;;1.60;;
53642;SDS011;39546;45.534;12.048;2022-09-09T03:52:16;2.80;;;1.27;;
53642;SDS011;39546;45.534;12.048;2022-09-09T03:58:18;1.52;;;1.40;;
53642;SDS011;39546;45.534;12.048;2022-09-09T04:04:20;5.05;;;1.45;;
53642;SDS011;39546;45.534;12.048;2022-09-09T04:10:23;2.35;;;1.60;;
53642;SDS011;39546;45.534;12.048;2022-09-09T04:16:28;2.28;;;1.55;;
53642;SDS011;39546;45.534;12.048;2022-09-09T04:22:30;3.50;;;1.65;;
53642;SDS011;39546;45.534;12.048;2022-09-09T04:28:34;2.50;;;1.60;;
53642;SDS011;39546;45.534;12.048;2022-09-09T04:34:37;3.30;;;1.98;;
53642;SDS011;39546;45.534;12.048;2022-09-09T04:40:42;2.33;;;1.75;;
53642;SDS011;39546;45.534;12.048;2022-09-09T04:46:45;9.55;;;2.67;;
53642;SDS011;39546;45.534;12.048;2022-09-09T04:52:47;4.28;;;1.50;;
53642;SDS011;39546;45.534;12.048;2022-09-09T04:58:50;2.78;;;1.77;;
53642;SDS011;39546;45.534;12.048;2022-09-09T05:04:54;1.90;;;1.30;;
53642;SDS011;39546;45.534;12.048;2022-09-09T05:10:58;2.67;;;1.70;;
53642;SDS011;39546;45.534;12.048;2022-09-09T05:17:01;2.60;;;1.62;;
53642;SDS011;39546;45.534;12.048;2022-09-09T05:23:03;3.20;;;2.10;;
53642;SDS011;39546;45.534;12.048;2022-09-09T05:29:05;3.28;;;1.67;;
53642;SDS011;39546;45.534;12.048;2022-09-09T05:35:09;3.78;;;2.17;;
53642;SDS011;39546;45.534;12.048;2022-09-09T05:47:43;4.37;;;1.62;;
53642;SDS011;39546;45.534;12.048;2022-09-09T05:54:03;6.20;;;2.30;;
53642;SDS011;39546;45.534;12.048;2022-09-09T06:00:06;4.45;;;2.53;;
53642;SDS011;39546;45.534;12.048;2022-09-09T06:06:15;6.80;;;1.90;;
53642;SDS011;39546;45.534;12.048;2022-09-09T06:12:22;2.22;;;1.67;;
53642;SDS011;39546;45.534;12.048;2022-09-09T06:18:24;6.40;;;2.08;;
53642;SDS011;39546;45.534;12.048;2022-09-09T06:24:27;3.50;;;2.00;;
53642;SDS011;39546;45.534;12.048;2022-09-09T06:30:31;6.18;;;2.97;;
53642;SDS011;39546;45.534;12.048;2022-09-09T06:36:36;5.75;;;2.45;;
53642;SDS011;39546;45.534;12.048;2022-09-09T06:42:40;2.97;;;1.95;;
53642;SDS011;39546;45.534;12.048;2022-09-09T06:48:58;5.62;;;2.40;;
53642;SDS011;39546;45.534;12.048;2022-09-09T06:55:01;3.03;;;1.75;;
53642;SDS011;39546;45.534;12.048;2022-09-09T07:01:05;3.70;;;2.42;;
53642;SDS011;39546;45.534;12.048;2022-09-09T07:07:08;4.53;;;1.75;;
53642;SDS011;39546;45.534;12.048;2022-09-09T07:13:13;4.43;;;2.17;;
53642;SDS011;39546;45.534;12.048;2022-09-09T07:19:17;3.12;;;2.17;;
53642;SDS011;39546;45.534;12.048;2022-09-09T07:25:19;5.80;;;2.30;;
53642;SDS011;39546;45.534;12.048;2022-09-09T07:31:29;7.53;;;2.47;;
53642;SDS011;39546;45.534;12.048;2022-09-09T07:37:35;6.12;;;2.95;;
53642;SDS011;39546;45.534;12.048;2022-09-09T07:43:39;8.60;;;2.78;;
53642;SDS011;39546;45.534;12.048;2022-09-09T07:49:43;3.08;;;2.47;;
53642;SDS011;39546;45.534;12.048;2022-09-09T07:55:48;4.07;;;2.22;;
53642;SDS011;39546;45.534;12.048;2022-09-09T08:01:51;8.50;;;3.17;;
53642;SDS011;39546;45.534;12.048;2022-09-09T08:07:57;7.62;;;2.97;;
53642;SDS011;39546;45.534;12.048;2022-09-09T08:13:59;10.75;;;4.28;;
53642;SDS011;39546;45.534;12.048;2022-09-09T08:20:02;9.52;;;3.17;;
53642;SDS011;39546;45.534;12.048;2022-09-09T08:26:12;5.35;;;2.05;;
53642;SDS011;39546;45.534;12.048;2022-09-09T08:32:16;6.12;;;2.22;;
53642;SDS011;39546;45.534;12.048;2022-09-09T08:38:34;4.07;;;2.05;;
53642;SDS011;39546;45.534;12.048;2022-09-09T08:50:40;4.15;;;2.28;;
53642;SDS011;39546;45.534;12.048;2022-09-09T08:58:13;5.03;;;1.83;;
53642;SDS011;39546;45.534;12.048;2022-09-09T09:04:27;6.05;;;2.40;;
53642;SDS011;39546;45.534;12.048;2022-09-09T09:10:43;2.85;;;1.52;;
53642;SDS011;39546;45.534;12.048;2022-09-09T09:22:58;6.03;;;1.95;;
53642;SDS011;39546;45.534;12.048;2022-09-09T09:29:13;4.20;;;2.53;;
53642;SDS011;39546;45.534;12.048;2022-09-09T09:35:20;3.75;;;1.48;;
53642;SDS011;39546;45.534;12.048;2022-09-09T09:41:34;2.97;;;1.73;;
53642;SDS011;39546;45.534;12.048;2022-09-09T09:47:45;2.17;;;1.37;;
53642;SDS011;39546;45.534;12.048;2022-09-09T09:53:48;1.62;;;1.42;;
53642;SDS011;39546;45.534;12.048;2022-09-09T10:00:28;2.78;;;1.27;;
53642;SDS011;39546;45.534;12.048;2022-09-09T10:06:34;2.58;;;1.33;;
53642;SDS011;39546;45.534;12.048;2022-09-09T10:13:01;3.65;;;1.90;;
53642;SDS011;39546;45.534;12.048;2022-09-09T10:19:13;5.35;;;1.92;;
53642;SDS011;39546;45.534;12.048;2022-09-09T10:25:38;6.25;;;2.30;;
53642;SDS011;39546;45.534;12.048;2022-09-09T10:31:53;3.40;;;1.77;;
53642;SDS011;39546;45.534;12.048;2022-09-09T10:38:12;2.75;;;1.90;;
53642;SDS011;39546;45.534;12.048;2022-09-09T10:50:49;2.58;;;1.20;;
53642;SDS011;39546;45.534;12.048;2022-09-09T10:56:58;2.97;;;1.33;;
53642;SDS011;39546;45.534;12.048;2022-09-09T11:03:26;2.97;;;0.97;;
53642;SDS011;39546;45.534;12.048;2022-09-09T11:09:32;1.98;;;0.93;;
53642;SDS011;39546;45.534;12.048;2022-09-09T11:15:50;1.17;;;0.80;;
53642;SDS011;39546;45.534;12.048;2022-09-09T11:21:56;3.85;;;0.90;;
53642;SDS011;39546;45.534;12.048;2022-09-09T11:28:26;2.42;;;1.50;;
53642;SDS011;39546;45.534;12.048;2022-09-09T11:34:37;2.83;;;1.45;;
53642;SDS011;39546;45.534;12.048;2022-09-09T11:41:01;3.12;;;1.30;;
53642;SDS011;39546;45.534;12.048;2022-09-09T11:47:50;2.58;;;1.40;;
53642;SDS011;39546;45.534;12.048;2022-09-09T11:53:34;2.15;;;1.17;;
53642;SDS011;39546;45.534;12.048;2022-09-09T11:59:38;3.80;;;1.75;;
53642;SDS011;39546;45.534;12.048;2022-09-09T12:05:44;1.58;;;1.00;;
53642;SDS011;39546;45.534;12.048;2022-09-09T12:18:36;3.42;;;1.98;;
53642;SDS011;39546;45.534;12.048;2022-09-09T12:24:50;4.45;;;2.12;;
53642;SDS011;39546;45.534;12.048;2022-09-09T12:31:23;3.25;;;1.75;;
53642;SDS011;39546;45.534;12.048;2022-09-09T12:37:37;4.75;;;1.75;;
53642;SDS011;39546;45.534;12.048;2022-09-09T12:44:24;1.45;;;1.02;;
53642;SDS011;39546;45.534;12.048;2022-09-09T12:51:51;2.85;;;1.20;;
53642;SDS011;39546;45.534;12.048;2022-09-09T12:57:54;5.28;;;1.98;;
53642;SDS011;39546;45.534;12.048;2022-09-09T13:03:56;14.25;;;2.15;;
53642;SDS011;39546;45.534;12.048;2022-09-09T13:09:58;2.90;;;1.23;;
53642;SDS011;39546;45.534;12.048;2022-09-09T13:16:01;2.85;;;1.67;;
53642;SDS011;39546;45.534;12.048;2022-09-09T13:22:27;1.95;;;1.58;;
53642;SDS011;39546;45.534;12.048;2022-09-09T13:28:34;7.18;;;2.80;;
53642;SDS011;39546;45.534;12.048;2022-09-09T13:34:39;8.88;;;3.22;;
53642;SDS011;39546;45.534;12.048;2022-09-09T13:41:01;16.45;;;2.20;;
53642;SDS011;39546;45.534;12.048;2022-09-09T13:53:15;1.08;;;0.98;;
53642;SDS011;39546;45.534;12.048;2022-09-09T13:59:19;1.98;;;1.23;;
53642;SDS011;39546;45.534;12.048;2022-09-09T14:05:21;2.25;;;1.00;;
53642;SDS011;39546;45.534;12.048;2022-09-09T14:11:24;1.37;;;0.80;;
53642;SDS011;39546;45.534;12.048;2022-09-09T14:17:26;1.20;;;0.80;;
53642;SDS011;39546;45.534;12.048;2022-09-09T14:23:31;1.17;;;0.85;;
53642;SDS011;39546;45.534;12.048;2022-09-09T14:29:34;0.68;;;0.30;;
53642;SDS011;39546;45.534;12.048;2022-09-09T14:35:46;2.62;;;1.17;;
53642;SDS011;39546;45.534;12.048;2022-09-09T14:41:48;2.10;;;1.12;;
53642;SDS011;39546;45.534;12.048;2022-09-09T14:47:50;3.47;;;1.12;;
53642;SDS011;39546;45.534;12.048;2022-09-09T14:53:54;2.45;;;1.30;;
53642;SDS011;39546;45.534;12.048;2022-09-09T14:59:58;1.70;;;1.17;;
53642;SDS011;39546;45.534;12.048;2022-09-09T15:06:12;2.83;;;1.30;;
53642;SDS011;39546;45.534;12.048;2022-09-09T15:12:16;1.98;;;1.48;;
53642;SDS011;39546;45.534;12.048;2022-09-09T15:18:25;2.03;;;1.12;;
53642;SDS011;39546;45.534;12.048;2022-09-09T15:24:27;2.90;;;1.92;;
53642;SDS011;39546;45.534;12.048;2022-09-09T15:30:30;3.53;;;1.67;;
53642;SDS011;39546;45.534;12.048;2022-09-09T15:36:36;4.12;;;1.98;;
53642;SDS011;39546;45.534;12.048;2022-09-09T15:42:39;3.70;;;1.40;;
53642;SDS011;39546;45.534;12.048;2022-09-09T15:48:58;1.12;;;0.90;;
53642;SDS011;39546;45.534;12.048;2022-09-09T15:55:06;1.58;;;1.25;;
53642;SDS011;39546;45.534;12.048;2022-09-09T16:01:17;2.85;;;1.02;;
53642;SDS011;39546;45.534;12.048;2022-09-09T16:07:20;2.47;;;1.33;;
53642;SDS011;39546;45.534;12.048;2022-09-09T16:13:22;3.15;;;1.10;;
53642;SDS011;39546;45.534;12.048;2022-09-09T16:19:37;2.15;;;1.23;;
53642;SDS011;39546;45.534;12.048;2022-09-09T16:25:39;2.08;;;1.37;;
53642;SDS011;39546;45.534;12.048;2022-09-09T16:31:43;2.67;;;1.30;;
53642;SDS011;39546;45.534;12.048;2022-09-09T16:37:53;2.17;;;1.17;;
53642;SDS011;39546;45.534;12.048;2022-09-09T16:43:55;2.05;;;1.05;;
53642;SDS011;39546;45.534;12.048;2022-09-09T16:49:59;2.50;;;1.23;;
53642;SDS011;39546;45.534;12.048;2022-09-09T16:56:05;1.90;;;1.10;;
53642;SDS011;39546;45.534;12.048;2022-09-09T17:02:09;1.60;;;1.00;;
53642;SDS011;39546;45.534;12.048;2022-09-09T17:08:11;1.58;;;1.15;;
53642;SDS011;39546;45.534;12.048;2022-09-09T17:14:14;2.12;;;1.40;;
53642;SDS011;39546;45.534;12.048;2022-09-09T17:20:18;1.52;;;1.05;;
53642;SDS011;39546;45.534;12.048;2022-09-09T17:26:21;2.53;;;1.50;;
53642;SDS011;39546;45.534;12.048;2022-09-09T17:32:28;5.87;;;1.63;;
53642;SDS011;39546;45.534;12.048;2022-09-09T17:44:55;3.62;;;1.80;;
53642;SDS011;39546;45.534;12.048;2022-09-09T17:50:58;1.75;;;1.05;;
53642;SDS011;39546;45.534;12.048;2022-09-09T17:57:13;1.98;;;1.20;;
53642;SDS011;39546;45.534;12.048;2022-09-09T18:03:16;1.02;;;0.75;;
53642;SDS011;39546;45.534;12.048;2022-09-09T18:09:21;2.85;;;1.62;;
53642;SDS011;39546;45.534;12.048;2022-09-09T18:15:24;2.30;;;1.42;;
53642;SDS011;39546;45.534;12.048;2022-09-09T18:21:26;2.67;;;1.52;;
53642;SDS011;39546;45.534;12.048;2022-09-09T18:27:33;4.85;;;2.03;;
53642;SDS011;39546;45.534;12.048;2022-09-09T18:33:36;2.75;;;1.55;;
53642;SDS011;39546;45.534;12.048;2022-09-09T18:39:39;4.12;;;2.17;;
53642;SDS011;39546;45.534;12.048;2022-09-09T18:45:40;3.37;;;1.90;;
53642;SDS011;39546;45.534;12.048;2022-09-09T18:51:43;2.80;;;1.87;;
53642;SDS011;39546;45.534;12.048;2022-09-09T18:57:46;3.95;;;2.17;;
53642;SDS011;39546;45.534;12.048;2022-09-09T19:03:48;1.80;;;1.40;;
53642;SDS011;39546;45.534;12.048;2022-09-09T19:09:51;4.00;;;2.08;;
53642;SDS011;39546;45.534;12.048;2022-09-09T19:16:06;3.62;;;2.28;;
53642;SDS011;39546;45.534;12.048;2022-09-09T19:22:17;5.30;;;2.60;;
53642;SDS011;39546;45.534;12.048;2022-09-09T19:28:19;3.42;;;2.15;;
53642;SDS011;39546;45.534;12.048;2022-09-09T19:34:22;10.35;;;2.20;;
53642;SDS011;39546;45.534;12.048;2022-09-09T19:40:26;4.37;;;2.97;;
53642;SDS011;39546;45.534;12.048;2022-09-09T19:53:52;2.55;;;1.75;;
53642;SDS011;39546;45.534;12.048;2022-09-09T20:00:00;4.68;;;1.90;;
53642;SDS011;39546;45.534;12.048;2022-09-09T20:06:17;4.03;;;1.52;;
53642;SDS011;39546;45.534;12.048;2022-09-09T20:12:21;2.47;;;1.80;;
53642;SDS011;39546;45.534;12.048;2022-09-09T20:18:28;1.40;;;1.23;;
53642;SDS011;39546;45.534;12.048;2022-09-09T20:25:09;4.12;;;2.05;;
53642;SDS011;39546;45.534;12.048;2022-09-09T20:31:12;2.30;;;1.65;;
53642;SDS011;39546;45.534;12.048;2022-09-09T20:37:15;4.65;;;1.45;;
53642;SDS011;39546;45.534;12.048;2022-09-09T20:43:18;2.80;;;1.95;;
53642;SDS011;39546;45.534;12.048;2022-09-09T20:49:20;1.95;;;1.50;;
53642;SDS011;39546;45.534;12.048;2022-09-09T20:55:24;0.82;;;0.82;;
53642;SDS011;39546;45.534;12.048;2022-09-09T21:01:26;2.08;;;1.33;;
53642;SDS011;39546;45.534;12.048;2022-09-09T21:07:29;1.50;;;1.37;;
53642;SDS011;39546;45.534;12.048;2022-09-09T21:13:31;1.73;;;1.12;;
53642;SDS011;39546;45.534;12.048;2022-09-09T21:19:35;1.70;;;1.42;;
53642;SDS011;39546;45.534;12.048;2022-09-09T21:25:38;1.55;;;1.00;;
53642;SDS011;39546;45.534;12.048;2022-09-09T21:31:40;2.40;;;1.62;;
53642;SDS011;39546;45.534;12.048;2022-09-09T21:37:43;2.33;;;1.55;;
53642;SDS011;39546;45.534;12.048;2022-09-09T21:43:49;1.27;;;1.17;;
53642;SDS011;39546;45.534;12.048;2022-09-09T21:49:53;3.17;;;1.77;;
53642;SDS011;39546;45.534;12.048;2022-09-09T21:55:58;2.22;;;1.62;;
53642;SDS011;39546;45.534;12.048;2022-09-09T22:02:02;3.47;;;2.08;;
53642;SDS011;39546;45.534;12.048;2022-09-09T22:08:05;2.05;;;1.73;;
53642;SDS011;39546;45.534;12.048;2022-09-09T22:14:08;2.40;;;2.00;;
53642;SDS011;39546;45.534;12.048;2022-09-09T22:20:10;4.78;;;2.03;;
53642;SDS011;39546;45.534;12.048;2022-09-09T22:26:13;2.80;;;1.90;;
53642;SDS011;39546;45.534;12.048;2022-09-09T22:32:15;2.92;;;2.00;;
53642;SDS011;39546;45.534;12.048;2022-09-09T22:38:18;2.20;;;1.58;;
53642;SDS011;39546;45.534;12.048;2022-09-09T22:44:24;2.62;;;1.77;;
53642;SDS011;39546;45.534;12.048;2022-09-09T22:50:27;3.45;;;1.92;;
53642;SDS011;39546;45.534;12.048;2022-09-09T22:56:29;3.75;;;1.70;;
53642;SDS011;39546;45.534;12.048;2022-09-09T23:02:31;2.22;;;1.70;;
53642;SDS011;39546;45.534;12.048;2022-09-09T23:08:36;1.90;;;1.45;;
53642;SDS011;39546;45.534;12.048;2022-09-09T23:14:38;1.65;;;1.25;;
53642;SDS011;39546;45.534;12.048;2022-09-09T23:20:40;1.55;;;1.37;;
53642;SDS011;39546;45.534;12.048;2022-09-09T23:26:43;1.30;;;1.10;;
53642;SDS011;39546;45.534;12.048;2022-09-09T23:32:49;4.72;;;1.75;;
53642;SDS011;39546;45.534;12.048;2022-09-09T23:38:52;1.67;;;1.33;;
53642;SDS011;39546;45.534;12.048;2022-09-09T23:44:56;2.67;;;1.50;;
53642;SDS011;39546;45.534;12.048;2022-09-09T23:51:21;2.90;;;1.60;;
53642;SDS011;39546;45.534;12.048;2022-09-09T23:57:25;1.23;;;1.12;;
